AAL2785 KLAX-KLAS
Flight info
| Callsign | AAL2785 |
|---|---|
| Flight time | 0h 42m |
| Altitude | 27000 |
| Route | ORCKA5 MISEN RNDRZ4 |
| Aircraft | A21N/M-SDE2E3FGHIJ1RWXY/LB1 |
Departure
| Time | 2026-05-05 12:55 |
|---|---|
| Airport | Los Angeles International Airport (KLAX) |
Arrival
| Time | 2026-05-05 13:37 |
|---|---|
| Airport | Harry Reid International Airport (KLAS) |
| Time | Latitude | Longitude | Altitude | Speed | Heading |
|---|---|---|---|---|---|
| 2026-05-05 12:34 | 33.94163 | -118.40745 | 123 ft | 0 kts | 83° |
| 2026-05-05 12:45 | 33.94163 | -118.40747 | 124 ft | 1 kts | 83° |
| 2026-05-05 12:45 | 33.94161 | -118.40764 | 124 ft | 2 kts | 83° |
| 2026-05-05 12:45 | 33.94159 | -118.40782 | 124 ft | 2 kts | 83° |
| 2026-05-05 12:46 | 33.94157 | -118.40800 | 124 ft | 2 kts | 83° |
| 2026-05-05 12:46 | 33.94156 | -118.40819 | 124 ft | 2 kts | 83° |
| 2026-05-05 12:46 | 33.94154 | -118.40835 | 124 ft | 1 kts | 82° |
| 2026-05-05 12:46 | 33.94155 | -118.40844 | 124 ft | 1 kts | 142° |
| 2026-05-05 12:47 | 33.94160 | -118.40847 | 124 ft | 1 kts | 181° |
| 2026-05-05 12:47 | 33.94166 | -118.40847 | 124 ft | 0 kts | 173° |
| 2026-05-05 12:49 | 33.94163 | -118.40846 | 124 ft | 3 kts | 172° |
| 2026-05-05 12:49 | 33.94080 | -118.40833 | 125 ft | 18 kts | 173° |
| 2026-05-05 12:50 | 33.93937 | -118.40814 | 127 ft | 20 kts | 169° |
| 2026-05-05 12:50 | 33.93887 | -118.40725 | 127 ft | 12 kts | 80° |
| 2026-05-05 12:50 | 33.93898 | -118.40612 | 124 ft | 15 kts | 82° |
| 2026-05-05 12:50 | 33.93912 | -118.40477 | 123 ft | 17 kts | 83° |
| 2026-05-05 12:51 | 33.93928 | -118.40322 | 120 ft | 19 kts | 83° |
| 2026-05-05 12:51 | 33.93944 | -118.40157 | 120 ft | 20 kts | 84° |
| 2026-05-05 12:51 | 33.93962 | -118.39977 | 116 ft | 22 kts | 83° |
| 2026-05-05 12:51 | 33.93983 | -118.39784 | 113 ft | 24 kts | 83° |
| 2026-05-05 12:52 | 33.94004 | -118.39575 | 110 ft | 25 kts | 82° |
| 2026-05-05 12:52 | 33.94026 | -118.39362 | 108 ft | 26 kts | 83° |
| 2026-05-05 12:52 | 33.94048 | -118.39143 | 107 ft | 26 kts | 83° |
| 2026-05-05 12:52 | 33.94062 | -118.38918 | 104 ft | 27 kts | 82° |
| 2026-05-05 12:53 | 33.94085 | -118.38697 | 104 ft | 26 kts | 83° |
| 2026-05-05 12:53 | 33.94107 | -118.38483 | 103 ft | 23 kts | 83° |
| 2026-05-05 12:53 | 33.94065 | -118.38341 | 101 ft | 18 kts | 166° |
| 2026-05-05 12:53 | 33.93952 | -118.38351 | 101 ft | 15 kts | 240° |
| 2026-05-05 12:54 | 33.93928 | -118.38551 | 104 ft | 51 kts | 264° |
| 2026-05-05 12:54 | 33.93853 | -118.39295 | 107 ft | 125 kts | 264° |
| 2026-05-05 12:54 | 33.93718 | -118.40567 | 192 ft | 175 kts | 264° |
| 2026-05-05 12:55 | 33.93556 | -118.42025 | 930 ft | 175 kts | 262° |
| 2026-05-05 12:55 | 33.93376 | -118.43429 | 1839 ft | 170 kts | 261° |
| 2026-05-05 12:55 | 33.93182 | -118.44817 | 2518 ft | 174 kts | 260° |
| 2026-05-05 12:55 | 33.92968 | -118.46312 | 3009 ft | 189 kts | 255° |
| 2026-05-05 12:56 | 33.92299 | -118.47726 | 3453 ft | 206 kts | 224° |
| 2026-05-05 12:56 | 33.90952 | -118.48571 | 3825 ft | 232 kts | 190° |
| 2026-05-05 12:56 | 33.89316 | -118.48291 | 4411 ft | 252 kts | 154° |
| 2026-05-05 12:56 | 33.88044 | -118.46805 | 5208 ft | 265 kts | 120° |
| 2026-05-05 12:57 | 33.87682 | -118.44600 | 5995 ft | 280 kts | 85° |
| 2026-05-05 12:57 | 33.88393 | -118.42477 | 6886 ft | 288 kts | 53° |
| 2026-05-05 12:57 | 33.89971 | -118.41068 | 7764 ft | 294 kts | 21° |
| 2026-05-05 12:57 | 33.92004 | -118.40817 | 8605 ft | 299 kts | 349° |
| 2026-05-05 12:58 | 33.93930 | -118.41740 | 9427 ft | 303 kts | 332° |
| 2026-05-05 12:58 | 33.95869 | -118.42732 | 10169 ft | 307 kts | 350° |
| 2026-05-05 12:58 | 33.98002 | -118.42794 | 10726 ft | 314 kts | 15° |
| 2026-05-05 12:58 | 34.00057 | -118.41791 | 11114 ft | 323 kts | 39° |
| 2026-05-05 12:59 | 34.01637 | -118.39860 | 11473 ft | 332 kts | 60° |
| 2026-05-05 12:59 | 34.02506 | -118.37251 | 11806 ft | 343 kts | 82° |
| 2026-05-05 12:59 | 34.02496 | -118.34368 | 12097 ft | 356 kts | 102° |
| 2026-05-05 13:00 | 34.01757 | -118.28269 | 12807 ft | 386 kts | 85° |
| 2026-05-05 13:00 | 34.02497 | -118.25134 | 13501 ft | 393 kts | 68° |
| 2026-05-05 13:01 | 34.07796 | -118.17259 | 15359 ft | 411 kts | 53° |
| 2026-05-05 13:01 | 34.09547 | -118.14520 | 15934 ft | 414 kts | 57° |
| 2026-05-05 13:01 | 34.11221 | -118.11668 | 16476 ft | 418 kts | 58° |
| 2026-05-05 13:01 | 34.12851 | -118.08792 | 16988 ft | 422 kts | 59° |
| 2026-05-05 13:02 | 34.14532 | -118.05804 | 17520 ft | 426 kts | 59° |
| 2026-05-05 13:02 | 34.16189 | -118.02855 | 18029 ft | 430 kts | 59° |
| 2026-05-05 13:02 | 34.17879 | -117.99849 | 18526 ft | 434 kts | 59° |
| 2026-05-05 13:02 | 34.19571 | -117.96798 | 18993 ft | 439 kts | 56° |
| 2026-05-05 13:03 | 34.21288 | -117.93723 | 19403 ft | 444 kts | 56° |
| 2026-05-05 13:03 | 34.23060 | -117.90576 | 19873 ft | 448 kts | 56° |
| 2026-05-05 13:03 | 34.24819 | -117.87451 | 20352 ft | 451 kts | 56° |
| 2026-05-05 13:03 | 34.26573 | -117.84329 | 20811 ft | 453 kts | 56° |
| 2026-05-05 13:04 | 34.28355 | -117.81151 | 21259 ft | 456 kts | 56° |
| 2026-05-05 13:04 | 34.30161 | -117.77926 | 21699 ft | 459 kts | 56° |
| 2026-05-05 13:04 | 34.31955 | -117.74716 | 22122 ft | 462 kts | 56° |
| 2026-05-05 13:04 | 34.33770 | -117.71466 | 22536 ft | 465 kts | 56° |
| 2026-05-05 13:05 | 34.35601 | -117.68210 | 23079 ft | 464 kts | 55° |
| 2026-05-05 13:05 | 34.37474 | -117.65036 | 23684 ft | 462 kts | 54° |
| 2026-05-05 13:05 | 34.39366 | -117.61892 | 24249 ft | 460 kts | 53° |
| 2026-05-05 13:05 | 34.41236 | -117.58789 | 24767 ft | 459 kts | 53° |
| 2026-05-05 13:06 | 34.43133 | -117.55631 | 25274 ft | 459 kts | 53° |
| 2026-05-05 13:06 | 34.45010 | -117.52497 | 25718 ft | 459 kts | 54° |
| 2026-05-05 13:06 | 34.46879 | -117.49366 | 26086 ft | 461 kts | 54° |
| 2026-05-05 13:06 | 34.48770 | -117.46191 | 26439 ft | 463 kts | 54° |
| 2026-05-05 13:07 | 34.50679 | -117.42983 | 26797 ft | 464 kts | 54° |
| 2026-05-05 13:07 | 34.52559 | -117.39819 | 26995 ft | 467 kts | 54° |
| 2026-05-05 13:07 | 34.54465 | -117.36606 | 26999 ft | 467 kts | 54° |
| 2026-05-05 13:07 | 34.56355 | -117.33418 | 27001 ft | 467 kts | 54° |
| 2026-05-05 13:08 | 34.58255 | -117.30209 | 27002 ft | 467 kts | 54° |
| 2026-05-05 13:08 | 34.60178 | -117.26961 | 27003 ft | 467 kts | 54° |
| 2026-05-05 13:08 | 34.62058 | -117.23782 | 27003 ft | 467 kts | 54° |
| 2026-05-05 13:08 | 34.63957 | -117.20566 | 27003 ft | 467 kts | 54° |
| 2026-05-05 13:09 | 34.65854 | -117.17351 | 27003 ft | 467 kts | 54° |
| 2026-05-05 13:09 | 34.67756 | -117.14126 | 27003 ft | 467 kts | 54° |
| 2026-05-05 13:09 | 34.69655 | -117.10902 | 27003 ft | 467 kts | 54° |
| 2026-05-05 13:09 | 34.71541 | -117.07697 | 27003 ft | 467 kts | 54° |
| 2026-05-05 13:10 | 34.73438 | -117.04472 | 27003 ft | 467 kts | 54° |
| 2026-05-05 13:10 | 34.75338 | -117.01238 | 27003 ft | 467 kts | 54° |
| 2026-05-05 13:10 | 34.77213 | -116.98043 | 27003 ft | 467 kts | 54° |
| 2026-05-05 13:10 | 34.79129 | -116.94775 | 27003 ft | 467 kts | 54° |
| 2026-05-05 13:11 | 34.81010 | -116.91564 | 27003 ft | 467 kts | 54° |
| 2026-05-05 13:11 | 34.82908 | -116.88320 | 27003 ft | 467 kts | 54° |
| 2026-05-05 13:11 | 34.84792 | -116.85100 | 27003 ft | 467 kts | 54° |
| 2026-05-05 13:11 | 34.86686 | -116.81857 | 27003 ft | 467 kts | 54° |
| 2026-05-05 13:12 | 34.88562 | -116.78643 | 27003 ft | 467 kts | 54° |
| 2026-05-05 13:12 | 34.90449 | -116.75404 | 27003 ft | 467 kts | 54° |
| 2026-05-05 13:12 | 34.92331 | -116.72170 | 27002 ft | 467 kts | 54° |
| 2026-05-05 13:12 | 34.94183 | -116.68922 | 27003 ft | 467 kts | 55° |
| 2026-05-05 13:13 | 34.96036 | -116.65638 | 27002 ft | 467 kts | 55° |
| 2026-05-05 13:13 | 34.97868 | -116.62383 | 27002 ft | 467 kts | 55° |
| 2026-05-05 13:13 | 34.99717 | -116.59096 | 27002 ft | 467 kts | 55° |
| 2026-05-05 13:13 | 35.01564 | -116.55815 | 27002 ft | 467 kts | 55° |
| 2026-05-05 13:14 | 35.03396 | -116.52560 | 27002 ft | 467 kts | 55° |
| 2026-05-05 13:14 | 35.05254 | -116.49257 | 27002 ft | 467 kts | 55° |
| 2026-05-05 13:14 | 35.07094 | -116.45983 | 27002 ft | 467 kts | 55° |
| 2026-05-05 13:14 | 35.08965 | -116.42748 | 27002 ft | 467 kts | 53° |
| 2026-05-05 13:15 | 35.10985 | -116.39609 | 27002 ft | 467 kts | 50° |
| 2026-05-05 13:15 | 35.13132 | -116.36633 | 27002 ft | 467 kts | 47° |
| 2026-05-05 13:15 | 35.15382 | -116.33697 | 27003 ft | 467 kts | 46° |
| 2026-05-05 13:15 | 35.17611 | -116.30827 | 26650 ft | 471 kts | 46° |
| 2026-05-05 13:16 | 35.19873 | -116.27916 | 25809 ft | 474 kts | 46° |
| 2026-05-05 13:16 | 35.22149 | -116.24977 | 24770 ft | 477 kts | 46° |
| 2026-05-05 13:16 | 35.24402 | -116.21994 | 23688 ft | 480 kts | 48° |
| 2026-05-05 13:16 | 35.26625 | -116.18942 | 22654 ft | 477 kts | 49° |
| 2026-05-05 13:17 | 35.28775 | -116.15968 | 21802 ft | 457 kts | 49° |
| 2026-05-05 13:17 | 35.30864 | -116.13082 | 21209 ft | 445 kts | 48° |
| 2026-05-05 13:17 | 35.32899 | -116.10282 | 20630 ft | 435 kts | 48° |
| 2026-05-05 13:17 | 35.34892 | -116.07544 | 20052 ft | 428 kts | 48° |
| 2026-05-05 13:18 | 35.36859 | -116.04840 | 19471 ft | 422 kts | 48° |
| 2026-05-05 13:18 | 35.38817 | -116.02150 | 18870 ft | 420 kts | 48° |
| 2026-05-05 13:18 | 35.40761 | -115.99474 | 18411 ft | 413 kts | 48° |
| 2026-05-05 13:18 | 35.42671 | -115.96844 | 18031 ft | 403 kts | 48° |
| 2026-05-05 13:19 | 35.44519 | -115.94296 | 17701 ft | 394 kts | 48° |
| 2026-05-05 13:19 | 35.46323 | -115.91808 | 17413 ft | 383 kts | 48° |
| 2026-05-05 13:19 | 35.48057 | -115.89414 | 17211 ft | 371 kts | 48° |
| 2026-05-05 13:19 | 35.49770 | -115.87048 | 17016 ft | 360 kts | 48° |
| 2026-05-05 13:20 | 35.51391 | -115.84809 | 16822 ft | 349 kts | 48° |
| 2026-05-05 13:20 | 35.52998 | -115.82587 | 16633 ft | 339 kts | 48° |
| 2026-05-05 13:20 | 35.54539 | -115.80454 | 16458 ft | 328 kts | 48° |
| 2026-05-05 13:20 | 35.56024 | -115.78397 | 16297 ft | 318 kts | 48° |
| 2026-05-05 13:21 | 35.57469 | -115.76393 | 16149 ft | 308 kts | 48° |
| 2026-05-05 13:21 | 35.58871 | -115.74450 | 16011 ft | 299 kts | 48° |
| 2026-05-05 13:21 | 35.60300 | -115.72498 | 15990 ft | 311 kts | 47° |
| 2026-05-05 13:21 | 35.61769 | -115.70519 | 15997 ft | 315 kts | 47° |
| 2026-05-05 13:22 | 35.63269 | -115.68501 | 15999 ft | 316 kts | 47° |
| 2026-05-05 13:22 | 35.64751 | -115.66504 | 16001 ft | 316 kts | 47° |
| 2026-05-05 13:22 | 35.66229 | -115.64509 | 16001 ft | 316 kts | 47° |
| 2026-05-05 13:22 | 35.67717 | -115.62498 | 16002 ft | 316 kts | 47° |
| 2026-05-05 13:23 | 35.69200 | -115.60490 | 16002 ft | 316 kts | 47° |
| 2026-05-05 13:23 | 35.70666 | -115.58506 | 16002 ft | 316 kts | 47° |
| 2026-05-05 13:23 | 35.72189 | -115.56544 | 16000 ft | 316 kts | 42° |
| 2026-05-05 13:23 | 35.73912 | -115.54851 | 16001 ft | 316 kts | 33° |
| 2026-05-05 13:24 | 35.75789 | -115.53442 | 16001 ft | 316 kts | 29° |
| 2026-05-05 13:24 | 35.77723 | -115.52098 | 15998 ft | 316 kts | 29° |
| 2026-05-05 13:24 | 35.79648 | -115.50774 | 15978 ft | 316 kts | 29° |
| 2026-05-05 13:24 | 35.81556 | -115.49455 | 15596 ft | 318 kts | 29° |
| 2026-05-05 13:25 | 35.83488 | -115.48109 | 15192 ft | 316 kts | 29° |
| 2026-05-05 13:25 | 35.85412 | -115.46763 | 14812 ft | 313 kts | 29° |
| 2026-05-05 13:25 | 35.87280 | -115.45452 | 14450 ft | 310 kts | 29° |
| 2026-05-05 13:25 | 35.89166 | -115.44128 | 14087 ft | 308 kts | 29° |
| 2026-05-05 13:26 | 35.91025 | -115.42822 | 13730 ft | 305 kts | 29° |
| 2026-05-05 13:26 | 35.92852 | -115.41546 | 13369 ft | 303 kts | 29° |
| 2026-05-05 13:26 | 35.94668 | -115.40280 | 13019 ft | 300 kts | 29° |
| 2026-05-05 13:26 | 35.96493 | -115.39007 | 12672 ft | 297 kts | 29° |
| 2026-05-05 13:27 | 35.98286 | -115.37755 | 12337 ft | 295 kts | 29° |
| 2026-05-05 13:27 | 36.00028 | -115.36417 | 11976 ft | 293 kts | 41° |
| 2026-05-05 13:27 | 36.01214 | -115.34417 | 11614 ft | 290 kts | 69° |
| 2026-05-05 13:27 | 36.01541 | -115.32003 | 11253 ft | 287 kts | 92° |
| 2026-05-05 13:28 | 36.01420 | -115.29547 | 10963 ft | 284 kts | 95° |
| 2026-05-05 13:28 | 36.01265 | -115.27112 | 10655 ft | 281 kts | 95° |
| 2026-05-05 13:28 | 36.01120 | -115.24695 | 10336 ft | 279 kts | 94° |
| 2026-05-05 13:28 | 36.00987 | -115.22316 | 10010 ft | 277 kts | 94° |
| 2026-05-05 13:29 | 36.00860 | -115.19904 | 9661 ft | 277 kts | 94° |
| 2026-05-05 13:29 | 36.00740 | -115.17545 | 9329 ft | 275 kts | 94° |
| 2026-05-05 13:29 | 36.00622 | -115.15218 | 9107 ft | 268 kts | 94° |
| 2026-05-05 13:29 | 36.00509 | -115.12974 | 9093 ft | 254 kts | 94° |
| 2026-05-05 13:30 | 36.00399 | -115.10776 | 9094 ft | 255 kts | 94° |
| 2026-05-05 13:30 | 36.00286 | -115.08559 | 8832 ft | 256 kts | 94° |
| 2026-05-05 13:30 | 36.00175 | -115.06383 | 8520 ft | 253 kts | 94° |
| 2026-05-05 13:30 | 36.00063 | -115.04193 | 8212 ft | 251 kts | 94° |
| 2026-05-05 13:31 | 35.99954 | -115.02071 | 8101 ft | 248 kts | 94° |
| 2026-05-05 13:31 | 36.00058 | -114.99961 | 8000 ft | 239 kts | 69° |
| 2026-05-05 13:31 | 36.01020 | -114.98359 | 7649 ft | 238 kts | 32° |
| 2026-05-05 13:31 | 36.02563 | -114.97550 | 7220 ft | 240 kts | 20° |
| 2026-05-05 13:32 | 36.04021 | -114.96538 | 6780 ft | 243 kts | 40° |
| 2026-05-05 13:32 | 36.05240 | -114.95097 | 6384 ft | 244 kts | 46° |
| 2026-05-05 13:32 | 36.06451 | -114.93585 | 5952 ft | 247 kts | 37° |
| 2026-05-05 13:32 | 36.08027 | -114.92817 | 5477 ft | 249 kts | 360° |
| 2026-05-05 13:33 | 36.09615 | -114.93396 | 5127 ft | 238 kts | 321° |
| 2026-05-05 13:33 | 36.10512 | -114.95039 | 4842 ft | 222 kts | 281° |
| 2026-05-05 13:33 | 36.10296 | -114.96791 | 4641 ft | 199 kts | 238° |
| 2026-05-05 13:33 | 36.09267 | -114.97681 | 4567 ft | 171 kts | 188° |
| 2026-05-05 13:34 | 36.08152 | -114.97637 | 4485 ft | 153 kts | 187° |
| 2026-05-05 13:34 | 36.07261 | -114.98254 | 4354 ft | 150 kts | 236° |
| 2026-05-05 13:34 | 36.07018 | -114.99492 | 4241 ft | 150 kts | 272° |
| 2026-05-05 13:34 | 36.07127 | -115.00782 | 4043 ft | 150 kts | 277° |
| 2026-05-05 13:35 | 36.07244 | -115.02058 | 3813 ft | 149 kts | 275° |
| 2026-05-05 13:35 | 36.07336 | -115.03348 | 3578 ft | 149 kts | 274° |
| 2026-05-05 13:35 | 36.07380 | -115.04623 | 3349 ft | 148 kts | 271° |
| 2026-05-05 13:35 | 36.07382 | -115.05906 | 3119 ft | 148 kts | 269° |
| 2026-05-05 13:36 | 36.07365 | -115.07181 | 2896 ft | 147 kts | 269° |
| 2026-05-05 13:36 | 36.07355 | -115.08443 | 2715 ft | 147 kts | 270° |
| 2026-05-05 13:36 | 36.07367 | -115.09695 | 2544 ft | 146 kts | 271° |
| 2026-05-05 13:36 | 36.07371 | -115.10958 | 2339 ft | 146 kts | 270° |
| 2026-05-05 13:37 | 36.07359 | -115.12215 | 2158 ft | 146 kts | 270° |
| 2026-05-05 13:37 | 36.07363 | -115.13457 | 2071 ft | 132 kts | 271° |
| 2026-05-05 13:37 | 36.07365 | -115.14414 | 2099 ft | 87 kts | 269° |
| 2026-05-05 13:37 | 36.07364 | -115.14960 | 2119 ft | 46 kts | 270° |
| 2026-05-05 13:38 | 36.07394 | -115.15318 | 2133 ft | 35 kts | 289° |
| 2026-05-05 13:38 | 36.07456 | -115.15482 | 2138 ft | 15 kts | 299° |
| 2026-05-05 13:38 | 36.07511 | -115.15586 | 2141 ft | 13 kts | 308° |
| 2026-05-05 13:38 | 36.07573 | -115.15662 | 2143 ft | 11 kts | 317° |
| 2026-05-05 13:39 | 36.07635 | -115.15737 | 2145 ft | 14 kts | 315° |
| 2026-05-05 13:39 | 36.07739 | -115.15823 | 2146 ft | 22 kts | 353° |
| 2026-05-05 13:39 | 36.07805 | -115.15678 | 2139 ft | 23 kts | 89° |
| 2026-05-05 13:39 | 36.07806 | -115.15466 | 2131 ft | 25 kts | 90° |
| 2026-05-05 13:40 | 36.07803 | -115.15241 | 2122 ft | 25 kts | 89° |
| 2026-05-05 13:40 | 36.07886 | -115.15094 | 2114 ft | 12 kts | 80° |
| 2026-05-05 13:40 | 36.07869 | -115.14967 | 2110 ft | 16 kts | 94° |
| 2026-05-05 13:40 | 36.07858 | -115.14811 | 2104 ft | 19 kts | 92° |
| 2026-05-05 13:41 | 36.07905 | -115.14713 | 2101 ft | 6 kts | 12° |
| 2026-05-05 13:41 | 36.07947 | -115.14675 | 2098 ft | 5 kts | 30° |
| 2026-05-05 13:41 | 36.07954 | -115.14670 | 2097 ft | 0 kts | 30° |